Time;durP1;ratioP1;P1;durP2;ratioP2;P2;SDS_P1;SDS_P2;PMS_P1;PMS_P2;Temp;Humidity;BMP_temperature;BMP_pressure;BME280_temperature;BME280_humidity;BME280_pressure;Samples;Min_cycle;Max_cycle;Signal;HPM_P1;HPM_P2
2024/04/02 00:01:11;;;;;;;0.00;0.00;;;;;;;13.90;58.85;98335.94;4442423;32;35444;-87
2024/04/02 00:03:42;;;;;;;0.00;0.00;;;;;;;13.61;60.29;98356.84;4445095;32;33749;-87
2024/04/02 00:06:08;;;;;;;0.00;0.00;;;;;;;13.78;59.77;98371.44;4463909;32;33162;-87
2024/04/02 00:08:37;;;;;;;0.00;0.00;;;;;;;13.22;62.01;98374.06;4456137;32;32296;-88
2024/04/02 00:11:05;;;;;;;0.20;0.17;;;;;;;12.95;63.23;98375.19;4426836;32;35214;-87
2024/04/02 00:13:33;;;;;;;0.10;0.10;;;;;;;12.85;63.95;98390.09;4454738;32;34659;-87
2024/04/02 00:16:00;;;;;;;0.00;0.00;;;;;;;13.00;64.23;98414.56;4453161;32;34085;-86
2024/04/02 00:18:28;;;;;;;0.00;0.00;;;;;;;13.68;62.36;98412.94;4457631;32;33676;-86
2024/04/02 00:20:59;;;;;;;0.00;0.00;;;;;;;13.41;63.18;98416.75;4457153;32;33716;-84
2024/04/02 00:23:26;;;;;;;0.08;0.08;;;;;;;13.68;62.83;98389.88;4441601;32;34217;-84
2024/04/02 00:26:02;;;;;;;0.00;0.00;;;;;;;13.27;64.63;98374.56;4457473;32;34567;-84
2024/04/02 00:28:29;;;;;;;0.00;0.00;;;;;;;13.47;63.76;98341.19;4444982;32;32865;-84
2024/04/02 00:31:03;;;;;;;0.00;0.00;;;;;;;13.30;64.57;98321.31;4454105;32;32858;-84
2024/04/02 00:33:29;;;;;;;0.00;0.00;;;;;;;12.98;65.91;98314.00;4438962;32;34087;-84
2024/04/02 00:36:05;;;;;;;0.00;0.00;;;;;;;12.90;66.17;98313.75;4457482;32;34072;-84
2024/04/02 00:38:33;;;;;;;0.00;0.00;;;;;;;12.65;66.84;98335.97;4458595;32;33000;-86
2024/04/02 00:41:02;;;;;;;0.00;0.00;;;;;;;12.73;66.78;98336.25;4444475;32;34589;-85
2024/04/02 00:43:29;;;;;;;0.00;0.00;;;;;;;13.02;64.97;98335.81;4454490;32;32972;-86
2024/04/02 00:45:56;;;;;;;0.00;0.00;;;;;;;12.80;65.93;98345.41;4466934;32;33742;-85
2024/04/02 00:48:23;;;;;;;0.00;0.00;;;;;;;12.25;68.00;98386.59;4441569;32;35163;-86
2024/04/02 00:50:50;;;;;;;0.00;0.00;;;;;;;12.50;66.95;98388.28;4455423;32;34211;-86
2024/04/02 00:53:19;;;;;;;0.00;0.00;;;;;;;12.49;66.93;98405.12;4453727;32;34279;-85
2024/04/02 00:55:46;;;;;;;0.00;0.00;;;;;;;12.74;66.08;98412.09;4444720;32;34587;-85
2024/04/02 00:58:14;;;;;;;0.00;0.00;;;;;;;12.59;66.36;98430.94;4444458;32;32340;-85
2024/04/02 01:00:41;;;;;;;0.00;0.00;;;;;;;12.82;65.88;98438.00;4440125;32;32697;-85
2024/04/02 01:03:08;;;;;;;0.00;0.00;;;;;;;12.50;67.05;98435.94;4440397;32;35199;-84
2024/04/02 01:05:36;;;;;;;0.10;0.10;;;;;;;12.56;67.34;98414.28;4443540;32;33067;-84
2024/04/02 01:08:04;;;;;;;0.00;0.00;;;;;;;12.25;68.93;98381.31;4455491;32;34418;-84
2024/04/02 01:10:32;;;;;;;0.03;0.03;;;;;;;12.04;69.22;98381.03;4446870;31;34721;-83
2024/04/02 01:12:59;;;;;;;0.10;0.10;;;;;;;12.19;69.29;98386.19;4468576;31;33103;-83
2024/04/02 01:15:26;;;;;;;0.00;0.00;;;;;;;12.12;69.69;98393.72;4472575;32;33866;-84
2024/04/02 01:17:53;;;;;;;0.00;0.00;;;;;;;11.68;70.50;98381.84;4470246;31;34788;-84
2024/04/02 01:20:21;;;;;;;0.00;0.00;;;;;;;11.88;70.59;98376.97;4470164;31;33964;-83
2024/04/02 01:22:50;;;;;;;0.00;0.00;;;;;;;11.94;69.85;98364.16;4472084;31;33887;-83
2024/04/02 01:25:21;;;;;;;0.00;0.00;;;;;;;12.08;69.95;98372.91;4457858;31;34967;-83
2024/04/02 01:27:48;;;;;;;0.00;0.00;;;;;;;12.51;67.91;98397.06;4471196;31;33313;-85
2024/04/02 01:30:14;;;;;;;0.00;0.00;;;;;;;12.24;69.02;98399.91;4468202;31;34040;-85
2024/04/02 01:32:41;;;;;;;0.00;0.00;;;;;;;12.04;69.08;98380.19;4468628;31;35774;-84
2024/04/02 01:35:08;;;;;;;0.00;0.00;;;;;;;12.13;68.32;98370.75;4467492;32;33453;-83
2024/04/02 01:37:34;;;;;;;0.00;0.00;;;;;;;12.23;68.24;98372.63;4462512;31;32644;-83
2024/04/02 01:40:03;;;;;;;0.52;0.52;;;;;;;12.32;68.07;98357.03;4431648;32;34451;-83
2024/04/02 01:42:30;;;;;;;0.00;0.00;;;;;;;12.23;68.53;98356.72;4456746;32;33760;-84
2024/04/02 01:44:58;;;;;;;0.00;0.00;;;;;;;12.25;67.65;98348.69;4469053;32;32347;-83
2024/04/02 01:47:27;;;;;;;0.00;0.00;;;;;;;12.28;68.03;98359.03;4444976;32;33803;-83
2024/04/02 01:49:53;;;;;;;0.00;0.00;;;;;;;12.31;67.80;98369.41;4454003;32;32956;-84
2024/04/02 01:52:20;;;;;;;0.30;0.10;;;;;;;11.98;68.72;98372.72;4451664;32;32976;-85
2024/04/02 01:54:47;;;;;;;0.40;0.20;;;;;;;12.39;67.04;98376.78;4435572;32;35533;-86
2024/04/02 01:57:13;;;;;;;0.00;0.00;;;;;;;12.47;67.41;98392.94;4459583;31;32326;-86
2024/04/02 01:59:42;;;;;;;0.00;0.00;;;;;;;12.11;69.10;98401.78;4459950;31;33874;-85
2024/04/02 02:02:09;;;;;;;0.00;0.00;;;;;;;12.30;67.35;98424.16;4463755;31;32656;-86
2024/04/02 02:04:36;;;;;;;0.00;0.00;;;;;;;12.23;67.58;98435.28;4471799;31;32855;-86
2024/04/02 02:07:02;;;;;;;0.00;0.00;;;;;;;12.19;67.95;98447.03;4470209;31;34953;-85
2024/04/02 02:09:29;;;;;;;0.00;0.00;;;;;;;12.31;67.30;98432.94;4472844;31;34151;-86
2024/04/02 02:11:56;;;;;;;0.00;0.00;;;;;;;12.80;65.16;98424.03;4460648;31;34552;-86
2024/04/02 02:14:22;;;;;;;0.00;0.00;;;;;;;12.82;65.12;98411.53;4464727;31;33388;-85
2024/04/02 02:16:49;;;;;;;0.00;0.00;;;;;;;12.80;65.08;98385.13;4467205;31;32641;-85
2024/04/02 02:19:16;;;;;;;0.00;0.00;;;;;;;12.47;66.06;98407.03;4465590;31;33131;-85
2024/04/02 02:21:46;;;;;;;0.00;0.00;;;;;;;12.71;64.92;98392.91;4460099;32;32741;-84
2024/04/02 02:24:12;;;;;;;0.00;0.00;;;;;;;12.42;66.35;98387.97;4449106;32;33018;-84
2024/04/02 02:26:39;;;;;;;0.05;0.05;;;;;;;12.44;66.04;98386.09;4422975;32;34188;-85
2024/04/02 02:29:06;;;;;;;0.05;0.05;;;;;;;12.57;65.47;98401.88;4455430;32;32692;-85
2024/04/02 02:31:35;;;;;;;5.18;1.35;;;;;;;12.53;65.36;98411.88;4450733;32;32962;-84
2024/04/02 02:34:03;;;;;;;0.00;0.00;;;;;;;12.44;65.92;98425.78;4452154;32;35809;-84
2024/04/02 02:36:30;;;;;;;0.00;0.00;;;;;;;12.34;66.29;98443.28;4450947;32;33346;-84
2024/04/02 02:38:56;;;;;;;0.00;0.00;;;;;;;12.32;66.22;98471.66;4439791;32;32783;-84
2024/04/02 02:41:23;;;;;;;0.00;0.00;;;;;;;12.53;65.49;98475.44;4448982;32;35603;-84
2024/04/02 02:43:50;;;;;;;0.00;0.00;;;;;;;12.72;65.36;98490.81;4461479;32;33283;-84
2024/04/02 02:46:16;;;;;;;0.00;0.00;;;;;;;12.26;66.51;98498.59;4450818;32;33122;-83
2024/04/02 02:48:43;;;;;;;0.00;0.00;;;;;;;12.34;66.40;98498.87;4424657;32;34499;-83
2024/04/02 02:51:10;;;;;;;0.08;0.08;;;;;;;12.36;66.21;98506.72;4454177;32;33232;-82
2024/04/02 02:53:36;;;;;;;0.00;0.00;;;;;;;11.96;67.19;98506.87;4453976;32;34131;-84
2024/04/02 02:56:03;;;;;;;0.00;0.00;;;;;;;12.10;67.55;98508.56;4443480;32;34011;-83
2024/04/02 02:58:30;;;;;;;0.00;0.00;;;;;;;12.12;67.26;98523.37;4438764;32;33202;-83
2024/04/02 03:00:56;;;;;;;0.00;0.00;;;;;;;12.40;66.14;98511.69;4443529;32;34098;-83
2024/04/02 03:03:23;;;;;;;0.08;0.00;;;;;;;12.31;66.49;98509.69;4444919;32;34385;-85
2024/04/02 03:05:56;;;;;;;0.00;0.00;;;;;;;11.97;67.61;98520.00;4470929;32;34269;-85
2024/04/02 03:08:23;;;;;;;0.00;0.00;;;;;;;12.12;66.71;98525.19;4451577;32;34724;-85
2024/04/02 03:11:04;;;;;;;0.00;0.00;;;;;;;11.86;67.86;98517.25;4443020;32;33809;-85
2024/04/02 03:13:32;;;;;;;0.00;0.00;;;;;;;11.65;68.68;98518.72;4454965;32;34498;-86
2024/04/02 03:16:00;;;;;;;0.00;0.00;;;;;;;11.31;69.49;98506.94;4458101;32;33321;-86
2024/04/02 03:18:27;;;;;;;0.08;0.03;;;;;;;11.44;68.71;98521.87;4456603;32;31564;-87
2024/04/02 03:20:54;;;;;;;0.00;0.00;;;;;;;11.71;67.81;98523.56;4444706;32;34903;-88
2024/04/02 03:23:20;;;;;;;0.00;0.00;;;;;;;11.84;68.00;98515.69;4462763;32;32752;-87
2024/04/02 03:25:55;;;;;;;0.22;0.22;;;;;;;11.64;68.48;98524.94;4457500;32;32927;-88
2024/04/02 03:28:23;;;;;;;0.00;0.00;;;;;;;11.54;69.34;98530.03;4424912;32;34420;-90
2024/04/02 03:30:49;;;;;;;0.08;0.05;;;;;;;11.88;67.76;98520.66;4458681;32;33127;-90
2024/04/02 03:33:16;;;;;;;0.00;0.00;;;;;;;11.68;67.96;98529.94;4471695;32;33970;-90
2024/04/02 03:35:43;;;;;;;2.00;0.68;;;;;;;11.76;68.60;98534.66;4445857;32;33069;-89
2024/04/02 03:38:11;;;;;;;0.00;0.00;;;;;;;11.88;68.14;98546.25;4466229;32;33371;-91
2024/04/02 03:40:41;;;;;;;0.10;0.10;;;;;;;11.76;69.05;98545.25;4458823;32;33340;-90
2024/04/02 03:43:08;;;;;;;0.00;0.00;;;;;;;12.32;67.25;98544.94;4432519;32;34242;-90
2024/04/02 03:45:39;;;;;;;0.00;0.00;;;;;;;12.12;68.05;98543.69;4458490;32;32879;-89
2024/04/02 03:48:07;;;;;;;0.00;0.00;;;;;;;12.27;67.64;98543.47;4471309;32;33921;-89
2024/04/02 03:50:36;;;;;;;0.37;0.20;;;;;;;11.81;68.96;98551.06;4457494;32;33134;-90
2024/04/02 03:53:03;;;;;;;0.00;0.00;;;;;;;11.83;69.63;98554.50;4457540;32;32638;-89
2024/04/02 03:55:36;;;;;;;0.00;0.00;;;;;;;11.65;70.28;98559.22;4458164;32;33017;-89
2024/04/02 03:58:04;;;;;;;0.00;0.00;;;;;;;11.58;71.08;98567.66;4458232;32;32769;-87
2024/04/02 04:00:31;;;;;;;0.10;0.10;;;;;;;11.46;70.44;98567.53;4457869;32;34217;-86
2024/04/02 04:02:58;;;;;;;0.00;0.00;;;;;;;11.53;69.99;98568.78;4445855;32;33958;-85
2024/04/02 04:05:25;;;;;;;0.00;0.00;;;;;;;11.42;71.36;98571.31;4471267;32;32391;-84
2024/04/02 04:07:52;;;;;;;0.00;0.00;;;;;;;11.63;68.98;98571.69;4444154;32;33255;-84
2024/04/02 04:10:20;;;;;;;0.00;0.00;;;;;;;11.70;69.62;98574.75;4437254;32;34615;-84
2024/04/02 04:12:47;;;;;;;0.00;0.00;;;;;;;12.07;67.95;98572.28;4468450;32;32939;-84
2024/04/02 04:15:13;;;;;;;0.00;0.00;;;;;;;11.96;68.49;98573.88;4457031;32;33659;-85
2024/04/02 04:17:40;;;;;;;0.00;0.00;;;;;;;11.61;69.52;98570.09;4444823;32;32808;-84
2024/04/02 04:20:07;;;;;;;0.10;0.10;;;;;;;11.70;69.60;98580.91;4457220;32;33688;-85
2024/04/02 04:22:34;;;;;;;0.00;0.00;;;;;;;11.81;69.65;98582.81;4444909;32;34092;-85
2024/04/02 04:25:02;;;;;;;0.00;0.00;;;;;;;12.02;69.02;98586.66;4457049;32;33932;-85
2024/04/02 04:27:33;;;;;;;0.10;0.10;;;;;;;12.05;68.27;98586.44;4457174;32;33847;-84
2024/04/02 04:30:05;;;;;;;0.00;0.00;;;;;;;12.10;68.02;98586.13;4470387;32;34011;-86
2024/04/02 04:32:32;;;;;;;0.00;0.00;;;;;;;11.84;69.22;98592.38;4449875;32;32366;-87
2024/04/02 04:34:59;;;;;;;1.17;0.52;;;;;;;11.09;71.51;98594.69;4461605;32;32562;-86
2024/04/02 04:37:26;;;;;;;0.00;0.00;;;;;;;11.33;70.21;98598.37;4431097;32;34574;-87
2024/04/02 04:39:53;;;;;;;0.00;0.00;;;;;;;11.36;70.61;98600.81;4458146;32;32992;-89
2024/04/02 04:42:19;;;;;;;0.00;0.00;;;;;;;11.16;71.25;98601.28;4443860;32;34496;-85
2024/04/02 04:44:46;;;;;;;0.00;0.00;;;;;;;11.13;71.46;98606.75;4457084;32;34254;-84
2024/04/02 04:47:12;;;;;;;1.27;0.22;;;;;;;11.52;70.13;98608.56;4469925;32;34494;-84
2024/04/02 04:49:39;;;;;;;0.00;0.00;;;;;;;11.52;70.63;98619.13;4444661;32;32980;-86
2024/04/02 04:52:07;;;;;;;0.00;0.00;;;;;;;11.46;70.42;98615.09;4444455;32;34507;-84
2024/04/02 04:54:36;;;;;;;0.05;0.05;;;;;;;11.31;70.92;98631.97;4444158;32;33088;-85
2024/04/02 04:57:02;;;;;;;0.00;0.00;;;;;;;11.38;71.16;98637.69;4457176;32;32878;-84
2024/04/02 04:59:29;;;;;;;0.20;0.20;;;;;;;11.40;71.26;98638.47;4444273;32;34595;-85
2024/04/02 05:01:56;;;;;;;0.00;0.00;;;;;;;11.71;69.61;98645.19;4443578;32;32645;-84
2024/04/02 05:04:22;;;;;;;0.00;0.00;;;;;;;11.71;69.34;98650.50;4444296;32;32133;-86
2024/04/02 05:06:52;;;;;;;0.00;0.00;;;;;;;11.67;69.74;98659.56;4456675;32;34060;-86
2024/04/02 05:09:20;;;;;;;0.00;0.00;;;;;;;11.41;70.31;98659.50;4469652;32;34078;-85
2024/04/02 05:11:47;;;;;;;0.00;0.00;;;;;;;11.36;70.53;98672.16;4451110;32;33446;-85
2024/04/02 05:14:16;;;;;;;0.10;0.10;;;;;;;11.17;70.67;98674.31;4430918;32;34140;-85
2024/04/02 05:16:45;;;;;;;0.00;0.00;;;;;;;11.45;70.01;98682.16;4456928;32;33220;-83
2024/04/02 05:19:12;;;;;;;0.00;0.00;;;;;;;11.26;70.68;98685.13;4443907;32;32972;-85
2024/04/02 05:21:39;;;;;;;0.00;0.00;;;;;;;11.36;70.00;98689.81;4444026;32;34710;-85
2024/04/02 05:24:06;;;;;;;0.10;0.10;;;;;;;11.14;70.80;98698.25;4457003;32;33519;-85
2024/04/02 05:26:33;;;;;;;0.00;0.00;;;;;;;11.33;69.71;98704.06;4470187;32;34191;-85
2024/04/02 05:29:00;;;;;;;0.00;0.00;;;;;;;11.22;69.99;98710.06;4443351;32;35201;-85
2024/04/02 05:31:26;;;;;;;0.00;0.00;;;;;;;10.90;71.13;98721.78;4469079;32;34045;-85
2024/04/02 05:33:52;;;;;;;0.10;0.10;;;;;;;11.01;70.79;98720.19;4469593;32;33986;-86
2024/04/02 05:36:20;;;;;;;0.00;0.00;;;;;;;11.32;69.98;98734.09;4456589;32;33268;-85
2024/04/02 05:38:46;;;;;;;0.00;0.00;;;;;;;11.20;70.61;98750.72;4469916;32;34548;-85
2024/04/02 05:41:13;;;;;;;0.00;0.00;;;;;;;11.38;69.74;98754.00;4455620;32;34348;-85
2024/04/02 05:43:40;;;;;;;0.00;0.00;;;;;;;11.07;69.78;98760.38;4456856;32;34098;-85
2024/04/02 05:46:07;;;;;;;0.00;0.00;;;;;;;11.51;68.02;98776.91;4456876;32;33455;-85
2024/04/02 05:48:33;;;;;;;0.00;0.00;;;;;;;11.15;69.58;98779.22;4456743;32;32636;-85
2024/04/02 05:51:00;;;;;;;0.00;0.00;;;;;;;10.86;70.02;98783.66;4456406;32;34946;-83
2024/04/02 05:53:27;;;;;;;0.05;0.00;;;;;;;11.09;70.29;98784.88;4456499;32;32043;-83
2024/04/02 05:55:53;;;;;;;0.00;0.00;;;;;;;11.37;67.52;98787.50;4443114;32;33104;-83
2024/04/02 05:58:20;;;;;;;0.00;0.00;;;;;;;11.28;67.97;98804.78;4431039;32;35564;-84
2024/04/02 06:00:47;;;;;;;0.00;0.00;;;;;;;11.29;67.94;98803.84;4456563;32;33253;-83
2024/04/02 06:03:13;;;;;;;0.00;0.00;;;;;;;10.99;68.41;98806.59;4443469;32;33686;-83
2024/04/02 06:05:40;;;;;;;0.00;0.00;;;;;;;11.05;68.79;98823.00;4456303;32;33153;-83
2024/04/02 06:08:06;;;;;;;0.00;0.00;;;;;;;11.21;68.64;98826.41;4456361;32;33795;-83
2024/04/02 06:10:33;;;;;;;0.00;0.00;;;;;;;11.48;67.25;98824.66;4448472;32;33939;-84
2024/04/02 06:13:00;;;;;;;0.00;0.00;;;;;;;11.51;68.06;98828.94;4457136;32;33184;-83
2024/04/02 06:15:26;;;;;;;0.10;0.10;;;;;;;11.57;68.11;98825.03;4443760;32;32388;-83
2024/04/02 06:17:53;;;;;;;0.00;0.00;;;;;;;11.59;67.55;98823.19;4469486;32;35793;-84
2024/04/02 06:20:19;;;;;;;0.00;0.00;;;;;;;11.72;67.62;98824.91;4456417;32;33547;-85
2024/04/02 06:22:46;;;;;;;0.00;0.00;;;;;;;11.88;67.24;98827.47;4443297;32;33384;-84
2024/04/02 06:25:13;;;;;;;0.10;0.10;;;;;;;11.89;67.24;98829.16;4456142;32;34213;-83
2024/04/02 06:27:41;;;;;;;0.37;0.37;;;;;;;11.82;67.67;98826.97;4442992;32;33607;-83
2024/04/02 06:30:08;;;;;;;0.00;0.00;;;;;;;11.85;66.91;98832.94;4455424;32;33415;-87
2024/04/02 06:32:35;;;;;;;0.03;0.03;;;;;;;12.08;67.60;98823.53;4443144;32;33991;-87
2024/04/02 06:35:01;;;;;;;0.00;0.00;;;;;;;12.26;65.61;98830.25;4456695;32;33771;-87
2024/04/02 06:37:28;;;;;;;0.00;0.00;;;;;;;12.53;63.99;98834.66;4456274;32;33170;-87
2024/04/02 06:39:55;;;;;;;0.00;0.00;;;;;;;12.19;65.62;98841.34;4431052;32;32451;-88
2024/04/02 06:42:21;;;;;;;0.00;0.00;;;;;;;12.41;65.00;98836.34;4456522;32;33054;-88
2024/04/02 06:44:49;;;;;;;0.10;0.10;;;;;;;12.69;64.01;98840.63;4455070;32;32883;-84
2024/04/02 06:47:16;;;;;;;0.00;0.00;;;;;;;12.55;64.04;98849.50;4458250;31;34984;-86
2024/04/02 06:49:42;;;;;;;0.10;0.10;;;;;;;12.84;63.52;98848.50;4449385;32;33073;-85
2024/04/02 06:52:09;;;;;;;0.00;0.00;;;;;;;12.67;64.05;98844.31;4469763;32;32393;-87
2024/04/02 06:54:36;;;;;;;0.00;0.00;;;;;;;12.44;64.20;98859.97;4443002;32;34570;-87
2024/04/02 06:57:02;;;;;;;0.00;0.00;;;;;;;12.65;64.65;98872.72;4451033;31;33220;-88
2024/04/02 06:59:29;;;;;;;0.00;0.00;;;;;;;12.64;63.31;98869.22;4442644;32;33084;-87
2024/04/02 07:01:56;;;;;;;0.00;0.00;;;;;;;13.03;62.61;98878.94;4437065;32;34240;-87
2024/04/02 07:04:23;;;;;;;0.00;0.00;;;;;;;12.95;61.90;98880.41;4440775;32;33690;-88
2024/04/02 07:06:49;;;;;;;0.85;0.30;;;;;;;12.75;62.47;98889.69;4445481;32;32996;-88
2024/04/02 07:09:16;;;;;;;0.00;0.00;;;;;;;13.03;62.81;98892.19;4456064;32;33455;-88
2024/04/02 07:11:43;;;;;;;0.00;0.00;;;;;;;13.22;61.21;98878.53;4456287;32;32748;-88
2024/04/02 07:14:09;;;;;;;0.00;0.00;;;;;;;13.23;60.61;98892.62;4453202;32;33089;-88
2024/04/02 07:16:36;;;;;;;0.00;0.00;;;;;;;13.35;61.18;98896.25;4431219;32;34860;-86
2024/04/02 07:19:02;;;;;;;0.00;0.00;;;;;;;13.30;60.75;98910.69;4442718;32;33824;-87
2024/04/02 07:21:29;;;;;;;0.00;0.00;;;;;;;13.21;60.31;98911.28;4443147;32;32848;-85
2024/04/02 07:23:56;;;;;;;0.00;0.00;;;;;;;13.17;61.44;98915.09;4467748;32;33606;-85
2024/04/02 07:26:22;;;;;;;0.10;0.10;;;;;;;13.39;61.24;98919.81;4442632;32;32495;-85
2024/04/02 07:28:49;;;;;;;0.35;0.30;;;;;;;13.35;60.65;98915.66;4454968;32;33235;-85
2024/04/02 07:31:16;;;;;;;0.00;0.00;;;;;;;13.71;60.39;98919.34;4441101;32;34042;-85
2024/04/02 07:33:42;;;;;;;0.10;0.10;;;;;;;13.71;59.36;98919.34;4442718;32;32999;-86
2024/04/02 07:36:09;;;;;;;0.10;0.00;;;;;;;13.85;58.85;98932.47;4455878;32;33390;-87
2024/04/02 07:38:36;;;;;;;0.00;0.00;;;;;;;13.70;59.46;98929.09;4443350;32;33011;-89
2024/04/02 07:41:02;;;;;;;0.00;0.00;;;;;;;13.54;59.43;98944.41;4453024;32;33563;-88
2024/04/02 07:43:29;;;;;;;0.00;0.00;;;;;;;14.00;58.52;98928.72;4444235;32;32421;-85
2024/04/02 07:45:56;;;;;;;0.00;0.00;;;;;;;13.44;60.44;98946.00;4431923;32;35375;-84
2024/04/02 07:48:23;;;;;;;0.00;0.00;;;;;;;13.59;59.31;98944.94;4444734;32;32928;-84
2024/04/02 07:50:49;;;;;;;0.00;0.00;;;;;;;13.35;60.22;98955.44;4458314;32;34240;-84
2024/04/02 07:53:16;;;;;;;0.00;0.00;;;;;;;13.63;60.24;98954.38;4457646;32;34558;-84
2024/04/02 07:55:43;;;;;;;0.00;0.00;;;;;;;13.71;59.14;98962.63;4455883;32;32635;-84
2024/04/02 07:58:10;;;;;;;0.00;0.00;;;;;;;13.61;59.67;98976.66;4455060;32;34707;-84
2024/04/02 08:00:38;;;;;;;0.00;0.00;;;;;;;13.93;58.87;98966.44;4431680;32;34333;-84
2024/04/02 08:03:05;;;;;;;0.00;0.00;;;;;;;14.02;57.87;98971.09;4471217;31;32461;-84
2024/04/02 08:05:31;;;;;;;0.00;0.00;;;;;;;14.21;57.98;98979.44;4457646;31;34049;-84
2024/04/02 08:07:58;;;;;;;0.00;0.00;;;;;;;14.14;57.45;98980.00;4455888;32;33561;-85
2024/04/02 08:10:25;;;;;;;0.00;0.00;;;;;;;14.26;57.27;98974.66;4449566;32;34212;-84
2024/04/02 08:12:52;;;;;;;0.00;0.00;;;;;;;14.08;57.15;98979.47;4471048;32;34585;-84
2024/04/02 08:15:18;;;;;;;0.00;0.00;;;;;;;13.65;57.32;98992.25;4468744;32;33393;-84
2024/04/02 08:17:45;;;;;;;0.00;0.00;;;;;;;14.05;56.76;98998.28;4457024;32;35250;-84
2024/04/02 08:20:12;;;;;;;0.00;0.00;;;;;;;13.81;56.62;99019.44;4469777;32;32019;-84
2024/04/02 08:22:38;;;;;;;0.00;0.00;;;;;;;14.16;56.69;99005.47;4450903;32;33000;-84
2024/04/02 08:25:07;;;;;;;0.00;0.00;;;;;;;13.73;57.62;99018.25;4458106;31;34437;-84
2024/04/02 08:27:34;;;;;;;0.00;0.00;;;;;;;14.10;56.80;99016.53;4458488;31;33129;-85
2024/04/02 08:30:00;;;;;;;0.00;0.00;;;;;;;14.11;56.58;99012.94;4462842;31;33572;-84
2024/04/02 08:32:29;;;;;;;0.00;0.00;;;;;;;14.41;56.49;99033.78;4443714;32;33906;-84
2024/04/02 08:34:56;;;;;;;0.98;0.30;;;;;;;14.74;55.34;99021.72;4470309;32;33538;-84
2024/04/02 08:37:22;;;;;;;0.00;0.00;;;;;;;14.40;56.79;99028.59;4468524;32;34326;-87
2024/04/02 08:39:49;;;;;;;0.00;0.00;;;;;;;14.38;55.63;99034.00;4458058;32;33575;-88
2024/04/02 08:42:18;;;;;;;0.00;0.00;;;;;;;14.49;55.83;99046.56;4462158;32;33404;-88
2024/04/02 08:44:46;;;;;;;0.00;0.00;;;;;;;14.40;56.03;99041.88;4444466;32;32631;-87
2024/04/02 08:47:13;;;;;;;0.00;0.00;;;;;;;14.23;56.52;99046.56;4458007;32;32681;-87
2024/04/02 08:49:41;;;;;;;0.10;0.00;;;;;;;14.77;55.35;99067.53;4445290;32;33693;-88
2024/04/02 08:52:07;;;;;;;0.60;0.22;;;;;;;14.27;56.32;99068.44;4457986;32;34341;-88
2024/04/02 08:54:34;;;;;;;0.00;0.00;;;;;;;14.64;55.12;99050.75;4457763;32;34389;-87
2024/04/02 08:57:01;;;;;;;0.00;0.00;;;;;;;14.62;54.69;99078.37;4458158;32;34214;-88
2024/04/02 08:59:31;;;;;;;0.00;0.00;;;;;;;14.28;55.21;99080.75;4442110;32;31998;-88
2024/04/02 09:01:59;;;;;;;0.00;0.00;;;;;;;14.58;55.39;99083.94;4445297;32;33153;-88
2024/04/02 09:04:26;;;;;;;0.05;0.05;;;;;;;14.83;54.10;99092.81;4447457;32;32181;-88
2024/04/02 09:06:53;;;;;;;0.00;0.00;;;;;;;15.09;53.82;99101.53;4457018;32;33523;-87
2024/04/02 09:09:24;;;;;;;0.00;0.00;;;;;;;15.21;53.02;99100.63;4446191;32;34033;-88
2024/04/02 09:11:51;;;;;;;0.00;0.00;;;;;;;15.08;53.25;99095.34;4455342;32;33510;-88
2024/04/02 09:14:22;;;;;;;0.10;0.10;;;;;;;15.08;52.39;99106.00;4471044;32;33728;-88
2024/04/02 09:16:53;;;;;;;0.00;0.00;;;;;;;15.59;51.73;99095.09;4445427;32;34928;-87
2024/04/02 09:19:19;;;;;;;0.10;0.00;;;;;;;15.68;51.39;99108.72;4457556;32;34333;-87
2024/04/02 09:21:46;;;;;;;0.00;0.00;;;;;;;15.67;50.86;99112.34;4460676;32;32947;-88
2024/04/02 09:24:13;;;;;;;0.05;0.05;;;;;;;15.71;51.69;99114.63;4448944;32;34938;-88
2024/04/02 09:26:39;;;;;;;0.00;0.00;;;;;;;15.38;50.92;99115.31;4449040;32;33188;-88
2024/04/02 09:29:06;;;;;;;0.00;0.00;;;;;;;15.72;50.16;99112.84;4469141;32;33456;-87
2024/04/02 09:31:33;;;;;;;0.00;0.00;;;;;;;15.57;50.67;99125.44;4440179;32;34966;-88
2024/04/02 09:34:05;;;;;;;0.00;0.00;;;;;;;15.18;51.56;99134.56;4469735;32;33928;-88
2024/04/02 09:36:40;;;;;;;0.00;0.00;;;;;;;15.29;51.53;99140.81;4437976;32;33446;-87
2024/04/02 09:39:12;;;;;;;0.10;0.10;;;;;;;15.22;49.61;99141.38;4455929;32;32340;-88
2024/04/02 09:41:40;;;;;;;0.17;0.17;;;;;;;15.34;50.01;99143.12;4456825;32;35612;-88
2024/04/02 09:44:10;;;;;;;0.00;0.00;;;;;;;15.46;50.86;99152.84;4457002;32;33422;-87
2024/04/02 09:46:39;;;;;;;0.35;0.20;;;;;;;15.83;50.34;99145.66;4456710;32;34083;-87
2024/04/02 09:49:07;;;;;;;0.00;0.00;;;;;;;16.08;49.63;99149.97;4456899;32;31758;-87
2024/04/02 09:51:34;;;;;;;0.00;0.00;;;;;;;16.03;49.98;99154.78;4453898;32;34113;-87
2024/04/02 09:54:03;;;;;;;0.00;0.00;;;;;;;16.29;48.75;99146.63;4454284;32;33464;-88
2024/04/02 09:56:32;;;;;;;0.00;0.00;;;;;;;16.44;48.53;99156.09;4448149;32;34102;-87
2024/04/02 09:59:03;;;;;;;0.00;0.00;;;;;;;16.66;47.40;99160.56;4428010;32;33019;-87
2024/04/02 10:01:33;;;;;;;0.00;0.00;;;;;;;16.72;48.04;99156.63;4431226;32;32873;-87
2024/04/02 10:04:09;;;;;;;0.90;0.70;;;;;;;16.69;47.04;99155.00;4434154;32;34151;-87
2024/04/02 10:06:37;;;;;;;0.00;0.00;;;;;;;16.99;46.67;99159.72;4457224;32;34374;-88
2024/04/02 10:09:06;;;;;;;0.08;0.08;;;;;;;17.32;46.22;99163.31;4434547;32;33498;-87
2024/04/02 10:11:37;;;;;;;0.00;0.00;;;;;;;17.19;46.04;99147.47;4430733;32;32684;-88
2024/04/02 10:14:07;;;;;;;5.95;2.17;;;;;;;17.43;44.80;99152.63;4433248;32;33662;-87
2024/04/02 10:16:35;;;;;;;0.00;0.00;;;;;;;17.36;44.62;99162.09;4439717;32;32528;-86
2024/04/02 10:19:02;;;;;;;0.00;0.00;;;;;;;17.31;44.53;99162.47;4447991;32;33469;-87
2024/04/02 10:21:31;;;;;;;0.00;0.00;;;;;;;17.91;43.74;99144.19;4440834;32;34477;-87
2024/04/02 10:23:59;;;;;;;0.00;0.00;;;;;;;17.76;42.95;99145.50;4441430;32;34528;-87
2024/04/02 10:26:32;;;;;;;0.03;0.00;;;;;;;18.22;43.13;99144.25;4441412;32;32975;-87
2024/04/02 10:29:00;;;;;;;0.00;0.00;;;;;;;18.36;41.77;99149.25;4415242;32;34765;-88
2024/04/02 10:31:42;;;;;;;0.00;0.00;;;;;;;18.91;41.83;99160.53;4439551;32;33439;-86
2024/04/02 10:34:11;;;;;;;0.00;0.00;;;;;;;18.86;41.34;99160.09;4436216;32;35989;-88
2024/04/02 10:36:39;;;;;;;0.00;0.00;;;;;;;18.85;41.93;99161.06;4451015;32;33767;-88
2024/04/02 10:39:10;;;;;;;0.00;0.00;;;;;;;18.54;40.95;99160.19;4445681;32;33526;-88
2024/04/02 10:41:38;;;;;;;0.00;0.00;;;;;;;18.31;41.75;99162.16;4408847;32;33920;-88
2024/04/02 10:44:06;;;;;;;0.00;0.00;;;;;;;18.22;42.04;99165.63;4429558;32;32379;-88
2024/04/02 10:46:34;;;;;;;0.00;0.00;;;;;;;18.26;42.17;99186.59;4444976;32;34368;-89
2024/04/02 10:49:02;;;;;;;0.20;0.20;;;;;;;17.83;43.30;99178.69;4440350;32;32715;-88
2024/04/02 10:51:30;;;;;;;0.00;0.00;;;;;;;18.16;42.77;99186.53;4436844;32;33568;-88
2024/04/02 10:53:58;;;;;;;0.35;0.35;;;;;;;17.56;43.40;99192.47;4452812;32;33676;-88
2024/04/02 10:56:26;;;;;;;0.00;0.00;;;;;;;17.51;43.42;99184.84;4443581;32;33271;-88
2024/04/02 10:58:54;;;;;;;0.28;0.20;;;;;;;17.73;43.79;99194.63;4462833;32;32599;-88
2024/04/02 11:01:21;;;;;;;0.10;0.10;;;;;;;18.06;43.16;99188.31;4444299;32;32676;-89
2024/04/02 11:03:53;;;;;;;0.10;0.00;;;;;;;18.34;42.64;99189.47;4447960;32;34197;-88
2024/04/02 11:06:21;;;;;;;0.55;0.55;;;;;;;18.65;41.69;99193.00;4457574;32;34439;-88
2024/04/02 11:08:49;;;;;;;0.00;0.00;;;;;;;18.78;42.35;99187.50;4443196;32;32935;-88
2024/04/02 11:11:22;;;;;;;0.00;0.00;;;;;;;19.14;41.31;99191.44;4463329;32;33233;-88
2024/04/02 11:13:50;;;;;;;0.30;0.20;;;;;;;19.42;39.82;99186.31;4465672;31;33715;-88
2024/04/02 11:16:18;;;;;;;0.00;0.00;;;;;;;19.25;39.57;99189.62;4477111;31;33255;-88
2024/04/02 11:18:45;;;;;;;0.28;0.28;;;;;;;19.44;40.08;99182.47;4472539;31;32533;-89
2024/04/02 11:21:17;;;;;;;0.00;0.00;;;;;;;19.85;40.15;99174.38;4471280;31;33769;-89
2024/04/02 11:26:29;;;;;;;0.30;0.30;;;;;;;20.05;36.94;99188.62;4476626;31;33058;-89
2024/04/02 11:29:06;;;;;;;0.00;0.00;;;;;;;19.80;37.98;99206.97;4471867;31;34261;-89
2024/04/02 11:31:32;;;;;;;0.00;0.00;;;;;;;19.13;37.18;99208.47;4473322;31;33288;-88
2024/04/02 11:34:03;;;;;;;0.00;0.00;;;;;;;18.86;37.48;99205.56;4477106;31;34398;-88
2024/04/02 11:36:30;;;;;;;0.10;0.10;;;;;;;18.66;36.93;99200.09;4466581;31;34464;-88
2024/04/02 11:38:57;;;;;;;0.00;0.00;;;;;;;18.80;36.94;99204.28;4467334;31;33027;-88